sensor_id;sensor_type;location;lat;lon;timestamp;P1;durP1;ratioP1;P2;durP2;ratioP2
32319;SDS011;19080;51.750;5.888;2022-07-23T00:01:24;2.30;;;1.90;;
32319;SDS011;19080;51.750;5.888;2022-07-23T00:03:53;3.75;;;2.15;;
32319;SDS011;19080;51.750;5.888;2022-07-23T00:06:21;2.92;;;1.92;;
32319;SDS011;19080;51.750;5.888;2022-07-23T00:08:47;3.35;;;1.92;;
32319;SDS011;19080;51.750;5.888;2022-07-23T00:11:14;2.42;;;1.83;;
32319;SDS011;19080;51.750;5.888;2022-07-23T00:13:40;2.83;;;2.25;;
32319;SDS011;19080;51.750;5.888;2022-07-23T00:16:07;1.73;;;1.60;;
32319;SDS011;19080;51.750;5.888;2022-07-23T00:18:34;3.13;;;1.90;;
32319;SDS011;19080;51.750;5.888;2022-07-23T00:21:00;3.03;;;2.28;;
32319;SDS011;19080;51.750;5.888;2022-07-23T00:23:27;2.28;;;2.08;;
32319;SDS011;19080;51.750;5.888;2022-07-23T00:25:55;3.90;;;2.13;;
32319;SDS011;19080;51.750;5.888;2022-07-23T00:28:21;2.15;;;1.88;;
32319;SDS011;19080;51.750;5.888;2022-07-23T00:30:48;2.28;;;1.98;;
32319;SDS011;19080;51.750;5.888;2022-07-23T00:33:14;1.70;;;1.60;;
32319;SDS011;19080;51.750;5.888;2022-07-23T00:35:41;4.30;;;2.00;;
32319;SDS011;19080;51.750;5.888;2022-07-23T00:38:08;1.88;;;1.60;;
32319;SDS011;19080;51.750;5.888;2022-07-23T00:40:36;3.83;;;1.52;;
32319;SDS011;19080;51.750;5.888;2022-07-23T00:43:03;4.65;;;1.98;;
32319;SDS011;19080;51.750;5.888;2022-07-23T00:45:30;4.18;;;2.10;;
32319;SDS011;19080;51.750;5.888;2022-07-23T00:47:57;2.83;;;2.33;;
32319;SDS011;19080;51.750;5.888;2022-07-23T00:50:23;2.13;;;1.80;;
32319;SDS011;19080;51.750;5.888;2022-07-23T00:52:49;3.53;;;2.20;;
32319;SDS011;19080;51.750;5.888;2022-07-23T00:55:16;2.03;;;1.92;;
32319;SDS011;19080;51.750;5.888;2022-07-23T00:57:43;4.13;;;2.53;;
32319;SDS011;19080;51.750;5.888;2022-07-23T01:00:11;2.33;;;2.13;;
32319;SDS011;19080;51.750;5.888;2022-07-23T01:02:38;4.35;;;2.22;;
32319;SDS011;19080;51.750;5.888;2022-07-23T01:05:05;2.78;;;2.25;;
32319;SDS011;19080;51.750;5.888;2022-07-23T01:07:33;3.60;;;2.30;;
32319;SDS011;19080;51.750;5.888;2022-07-23T01:10:00;2.75;;;1.88;;
32319;SDS011;19080;51.750;5.888;2022-07-23T01:12:27;5.30;;;2.60;;
32319;SDS011;19080;51.750;5.888;2022-07-23T01:14:58;5.78;;;2.00;;
32319;SDS011;19080;51.750;5.888;2022-07-23T01:17:26;3.78;;;2.30;;
32319;SDS011;19080;51.750;5.888;2022-07-23T01:19:54;2.40;;;2.20;;
32319;SDS011;19080;51.750;5.888;2022-07-23T01:22:21;2.17;;;1.98;;
32319;SDS011;19080;51.750;5.888;2022-07-23T01:24:47;2.20;;;2.00;;
32319;SDS011;19080;51.750;5.888;2022-07-23T01:27:17;4.85;;;2.50;;
32319;SDS011;19080;51.750;5.888;2022-07-23T01:29:47;2.97;;;2.25;;
32319;SDS011;19080;51.750;5.888;2022-07-23T01:32:17;2.30;;;2.10;;
32319;SDS011;19080;51.750;5.888;2022-07-23T01:34:44;3.20;;;2.17;;
32319;SDS011;19080;51.750;5.888;2022-07-23T01:37:11;2.05;;;1.90;;
32319;SDS011;19080;51.750;5.888;2022-07-23T01:39:38;3.22;;;1.70;;
32319;SDS011;19080;51.750;5.888;2022-07-23T01:42:06;2.05;;;1.52;;
32319;SDS011;19080;51.750;5.888;2022-07-23T01:44:33;4.50;;;2.35;;
32319;SDS011;19080;51.750;5.888;2022-07-23T01:47:00;3.00;;;2.17;;
32319;SDS011;19080;51.750;5.888;2022-07-23T01:49:27;3.58;;;2.70;;
32319;SDS011;19080;51.750;5.888;2022-07-23T01:52:12;2.60;;;2.00;;
32319;SDS011;19080;51.750;5.888;2022-07-23T01:54:44;2.28;;;2.05;;
32319;SDS011;19080;51.750;5.888;2022-07-23T01:57:11;3.95;;;2.47;;
32319;SDS011;19080;51.750;5.888;2022-07-23T01:59:37;2.47;;;2.28;;
32319;SDS011;19080;51.750;5.888;2022-07-23T02:02:06;4.90;;;3.35;;
32319;SDS011;19080;51.750;5.888;2022-07-23T02:04:33;3.97;;;2.30;;
32319;SDS011;19080;51.750;5.888;2022-07-23T02:07:04;2.42;;;2.20;;
32319;SDS011;19080;51.750;5.888;2022-07-23T02:09:33;3.53;;;2.90;;
32319;SDS011;19080;51.750;5.888;2022-07-23T02:12:00;2.85;;;2.65;;
32319;SDS011;19080;51.750;5.888;2022-07-23T02:14:27;4.15;;;3.75;;
32319;SDS011;19080;51.750;5.888;2022-07-23T02:16:54;6.35;;;5.55;;
32319;SDS011;19080;51.750;5.888;2022-07-23T02:19:20;8.10;;;5.90;;
32319;SDS011;19080;51.750;5.888;2022-07-23T02:21:47;5.47;;;4.93;;
32319;SDS011;19080;51.750;5.888;2022-07-23T02:24:14;6.28;;;5.25;;
32319;SDS011;19080;51.750;5.888;2022-07-23T02:26:41;8.32;;;5.43;;
32319;SDS011;19080;51.750;5.888;2022-07-23T02:29:08;6.03;;;4.63;;
32319;SDS011;19080;51.750;5.888;2022-07-23T02:31:34;4.80;;;3.60;;
32319;SDS011;19080;51.750;5.888;2022-07-23T02:34:02;7.35;;;5.18;;
32319;SDS011;19080;51.750;5.888;2022-07-23T02:36:28;6.13;;;4.85;;
32319;SDS011;19080;51.750;5.888;2022-07-23T02:38:56;3.40;;;3.13;;
32319;SDS011;19080;51.750;5.888;2022-07-23T02:41:25;6.95;;;4.75;;
32319;SDS011;19080;51.750;5.888;2022-07-23T02:43:51;6.38;;;5.10;;
32319;SDS011;19080;51.750;5.888;2022-07-23T02:46:18;6.20;;;5.22;;
32319;SDS011;19080;51.750;5.888;2022-07-23T02:48:45;9.07;;;7.20;;
32319;SDS011;19080;51.750;5.888;2022-07-23T02:51:13;9.05;;;7.03;;
32319;SDS011;19080;51.750;5.888;2022-07-23T02:53:44;9.77;;;7.78;;
32319;SDS011;19080;51.750;5.888;2022-07-23T02:56:11;8.27;;;7.25;;
32319;SDS011;19080;51.750;5.888;2022-07-23T02:58:37;7.43;;;6.72;;
32319;SDS011;19080;51.750;5.888;2022-07-23T03:01:04;8.93;;;7.13;;
32319;SDS011;19080;51.750;5.888;2022-07-23T03:03:30;9.65;;;7.47;;
32319;SDS011;19080;51.750;5.888;2022-07-23T03:05:57;9.68;;;7.40;;
32319;SDS011;19080;51.750;5.888;2022-07-23T03:08:24;8.13;;;7.20;;
32319;SDS011;19080;51.750;5.888;2022-07-23T03:10:51;7.93;;;7.10;;
32319;SDS011;19080;51.750;5.888;2022-07-23T03:13:18;9.25;;;7.47;;
32319;SDS011;19080;51.750;5.888;2022-07-23T03:15:44;8.43;;;7.05;;
32319;SDS011;19080;51.750;5.888;2022-07-23T03:18:11;7.53;;;6.55;;
32319;SDS011;19080;51.750;5.888;2022-07-23T03:20:37;10.32;;;6.13;;
32319;SDS011;19080;51.750;5.888;2022-07-23T03:23:04;7.07;;;6.28;;
32319;SDS011;19080;51.750;5.888;2022-07-23T03:25:31;7.43;;;4.88;;
32319;SDS011;19080;51.750;5.888;2022-07-23T03:27:57;5.20;;;4.70;;
32319;SDS011;19080;51.750;5.888;2022-07-23T03:30:26;7.57;;;5.85;;
32319;SDS011;19080;51.750;5.888;2022-07-23T03:32:53;10.23;;;9.23;;
32319;SDS011;19080;51.750;5.888;2022-07-23T03:35:20;16.60;;;15.02;;
32319;SDS011;19080;51.750;5.888;2022-07-23T03:38:05;10.55;;;9.55;;
32319;SDS011;19080;51.750;5.888;2022-07-23T03:40:31;10.82;;;9.82;;
32319;SDS011;19080;51.750;5.888;2022-07-23T03:42:58;10.13;;;9.13;;
32319;SDS011;19080;51.750;5.888;2022-07-23T03:45:24;11.13;;;9.05;;
32319;SDS011;19080;51.750;5.888;2022-07-23T03:47:51;11.02;;;9.90;;
32319;SDS011;19080;51.750;5.888;2022-07-23T03:50:17;12.85;;;11.60;;
32319;SDS011;19080;51.750;5.888;2022-07-23T03:52:44;14.68;;;13.25;;
32319;SDS011;19080;51.750;5.888;2022-07-23T03:55:11;11.48;;;10.35;;
32319;SDS011;19080;51.750;5.888;2022-07-23T03:57:37;10.70;;;9.60;;
32319;SDS011;19080;51.750;5.888;2022-07-23T04:00:04;10.70;;;9.65;;
32319;SDS011;19080;51.750;5.888;2022-07-23T04:02:39;12.77;;;11.55;;
32319;SDS011;19080;51.750;5.888;2022-07-23T04:05:07;11.25;;;10.18;;
32319;SDS011;19080;51.750;5.888;2022-07-23T04:07:33;11.07;;;9.80;;
32319;SDS011;19080;51.750;5.888;2022-07-23T04:10:00;10.77;;;9.65;;
32319;SDS011;19080;51.750;5.888;2022-07-23T04:12:27;9.55;;;8.60;;
32319;SDS011;19080;51.750;5.888;2022-07-23T04:14:54;8.85;;;7.88;;
32319;SDS011;19080;51.750;5.888;2022-07-23T04:17:21;8.00;;;7.15;;
32319;SDS011;19080;51.750;5.888;2022-07-23T04:19:47;8.25;;;7.40;;
32319;SDS011;19080;51.750;5.888;2022-07-23T04:22:17;7.78;;;6.93;;
32319;SDS011;19080;51.750;5.888;2022-07-23T04:24:44;8.27;;;6.47;;
32319;SDS011;19080;51.750;5.888;2022-07-23T04:27:10;8.65;;;6.90;;
32319;SDS011;19080;51.750;5.888;2022-07-23T04:29:37;7.70;;;6.90;;
32319;SDS011;19080;51.750;5.888;2022-07-23T04:32:03;8.63;;;7.82;;
32319;SDS011;19080;51.750;5.888;2022-07-23T04:34:30;8.48;;;7.68;;
32319;SDS011;19080;51.750;5.888;2022-07-23T04:36:57;12.10;;;9.93;;
32319;SDS011;19080;51.750;5.888;2022-07-23T04:39:25;9.18;;;8.32;;
32319;SDS011;19080;51.750;5.888;2022-07-23T04:41:52;12.23;;;10.70;;
32319;SDS011;19080;51.750;5.888;2022-07-23T04:44:18;10.73;;;9.35;;
32319;SDS011;19080;51.750;5.888;2022-07-23T04:46:46;11.35;;;10.25;;
32319;SDS011;19080;51.750;5.888;2022-07-23T04:49:17;12.30;;;10.90;;
32319;SDS011;19080;51.750;5.888;2022-07-23T04:51:44;12.35;;;11.05;;
32319;SDS011;19080;51.750;5.888;2022-07-23T04:54:11;12.30;;;11.00;;
32319;SDS011;19080;51.750;5.888;2022-07-23T04:56:38;11.63;;;10.48;;
32319;SDS011;19080;51.750;5.888;2022-07-23T04:59:05;11.82;;;10.70;;
32319;SDS011;19080;51.750;5.888;2022-07-23T05:01:31;12.90;;;11.63;;
32319;SDS011;19080;51.750;5.888;2022-07-23T05:03:58;10.07;;;8.90;;
32319;SDS011;19080;51.750;5.888;2022-07-23T05:06:29;9.07;;;8.20;;
32319;SDS011;19080;51.750;5.888;2022-07-23T05:08:56;10.18;;;8.63;;
32319;SDS011;19080;51.750;5.888;2022-07-23T05:11:23;10.38;;;9.38;;
32319;SDS011;19080;51.750;5.888;2022-07-23T05:13:53;8.25;;;7.50;;
32319;SDS011;19080;51.750;5.888;2022-07-23T05:16:20;9.98;;;8.52;;
32319;SDS011;19080;51.750;5.888;2022-07-23T05:18:47;9.00;;;7.60;;
32319;SDS011;19080;51.750;5.888;2022-07-23T05:21:14;7.80;;;7.07;;
32319;SDS011;19080;51.750;5.888;2022-07-23T05:23:40;8.85;;;7.95;;
32319;SDS011;19080;51.750;5.888;2022-07-23T05:26:07;8.30;;;7.45;;
32319;SDS011;19080;51.750;5.888;2022-07-23T05:28:34;8.50;;;7.25;;
32319;SDS011;19080;51.750;5.888;2022-07-23T05:31:00;7.20;;;6.50;;
32319;SDS011;19080;51.750;5.888;2022-07-23T05:33:28;6.90;;;6.30;;
32319;SDS011;19080;51.750;5.888;2022-07-23T05:35:59;7.00;;;6.40;;
32319;SDS011;19080;51.750;5.888;2022-07-23T05:38:28;7.05;;;6.35;;
32319;SDS011;19080;51.750;5.888;2022-07-23T05:40:57;8.10;;;7.10;;
32319;SDS011;19080;51.750;5.888;2022-07-23T05:43:25;9.82;;;8.35;;
32319;SDS011;19080;51.750;5.888;2022-07-23T05:45:51;8.98;;;6.88;;
32319;SDS011;19080;51.750;5.888;2022-07-23T05:48:18;9.23;;;7.57;;
32319;SDS011;19080;51.750;5.888;2022-07-23T05:50:56;8.82;;;7.88;;
32319;SDS011;19080;51.750;5.888;2022-07-23T05:53:30;8.35;;;7.55;;
32319;SDS011;19080;51.750;5.888;2022-07-23T05:56:07;9.82;;;6.88;;
32319;SDS011;19080;51.750;5.888;2022-07-23T05:58:35;7.97;;;5.80;;
32319;SDS011;19080;51.750;5.888;2022-07-23T06:01:01;7.25;;;6.55;;
32319;SDS011;19080;51.750;5.888;2022-07-23T06:03:34;6.47;;;5.88;;
32319;SDS011;19080;51.750;5.888;2022-07-23T06:06:01;7.28;;;6.03;;
32319;SDS011;19080;51.750;5.888;2022-07-23T06:08:27;7.65;;;5.72;;
32319;SDS011;19080;51.750;5.888;2022-07-23T06:10:55;5.38;;;4.75;;
32319;SDS011;19080;51.750;5.888;2022-07-23T06:13:21;5.28;;;4.78;;
32319;SDS011;19080;51.750;5.888;2022-07-23T06:15:47;6.22;;;4.60;;
32319;SDS011;19080;51.750;5.888;2022-07-23T06:18:14;7.22;;;5.35;;
32319;SDS011;19080;51.750;5.888;2022-07-23T06:20:41;6.38;;;5.20;;
32319;SDS011;19080;51.750;5.888;2022-07-23T06:23:07;6.80;;;5.00;;
32319;SDS011;19080;51.750;5.888;2022-07-23T06:25:34;8.30;;;5.78;;
32319;SDS011;19080;51.750;5.888;2022-07-23T06:28:00;6.95;;;5.80;;
32319;SDS011;19080;51.750;5.888;2022-07-23T06:30:27;6.38;;;5.75;;
32319;SDS011;19080;51.750;5.888;2022-07-23T06:32:53;9.88;;;5.32;;
32319;SDS011;19080;51.750;5.888;2022-07-23T06:35:20;7.38;;;5.90;;
32319;SDS011;19080;51.750;5.888;2022-07-23T06:37:46;6.65;;;5.30;;
32319;SDS011;19080;51.750;5.888;2022-07-23T06:40:14;5.93;;;4.43;;
32319;SDS011;19080;51.750;5.888;2022-07-23T06:42:41;7.03;;;5.20;;
32319;SDS011;19080;51.750;5.888;2022-07-23T06:45:14;4.60;;;4.20;;
32319;SDS011;19080;51.750;5.888;2022-07-23T06:47:40;6.10;;;4.57;;
32319;SDS011;19080;51.750;5.888;2022-07-23T06:50:08;5.07;;;3.65;;
32319;SDS011;19080;51.750;5.888;2022-07-23T06:52:34;7.55;;;4.88;;
32319;SDS011;19080;51.750;5.888;2022-07-23T06:55:07;7.18;;;5.10;;
32319;SDS011;19080;51.750;5.888;2022-07-23T06:57:34;3.67;;;2.92;;
32319;SDS011;19080;51.750;5.888;2022-07-23T07:00:00;2.92;;;1.88;;
32319;SDS011;19080;51.750;5.888;2022-07-23T07:02:27;3.78;;;2.25;;
32319;SDS011;19080;51.750;5.888;2022-07-23T07:04:54;4.65;;;2.15;;
32319;SDS011;19080;51.750;5.888;2022-07-23T07:07:30;2.05;;;1.42;;
32319;SDS011;19080;51.750;5.888;2022-07-23T07:12:48;2.03;;;1.50;;
32319;SDS011;19080;51.750;5.888;2022-07-23T07:15:15;3.05;;;1.52;;
32319;SDS011;19080;51.750;5.888;2022-07-23T07:17:41;2.58;;;1.10;;
32319;SDS011;19080;51.750;5.888;2022-07-23T07:20:08;3.35;;;1.40;;
32319;SDS011;19080;51.750;5.888;2022-07-23T07:22:36;4.40;;;1.77;;
32319;SDS011;19080;51.750;5.888;2022-07-23T07:25:03;2.15;;;1.30;;
32319;SDS011;19080;51.750;5.888;2022-07-23T07:27:29;3.28;;;1.38;;
32319;SDS011;19080;51.750;5.888;2022-07-23T07:29:56;2.05;;;1.27;;
32319;SDS011;19080;51.750;5.888;2022-07-23T07:32:22;2.15;;;1.05;;
32319;SDS011;19080;51.750;5.888;2022-07-23T07:35:09;2.45;;;1.35;;
32319;SDS011;19080;51.750;5.888;2022-07-23T07:37:35;4.40;;;1.30;;
32319;SDS011;19080;51.750;5.888;2022-07-23T07:40:02;4.32;;;1.30;;
32319;SDS011;19080;51.750;5.888;2022-07-23T07:42:29;3.10;;;2.20;;
32319;SDS011;19080;51.750;5.888;2022-07-23T07:44:55;6.30;;;2.80;;
32319;SDS011;19080;51.750;5.888;2022-07-23T07:47:21;5.03;;;2.90;;
32319;SDS011;19080;51.750;5.888;2022-07-23T07:49:48;4.22;;;2.08;;
32319;SDS011;19080;51.750;5.888;2022-07-23T07:52:15;4.70;;;2.00;;
32319;SDS011;19080;51.750;5.888;2022-07-23T07:54:41;3.47;;;1.90;;
32319;SDS011;19080;51.750;5.888;2022-07-23T07:57:09;3.05;;;1.65;;
32319;SDS011;19080;51.750;5.888;2022-07-23T07:59:35;3.17;;;1.77;;
32319;SDS011;19080;51.750;5.888;2022-07-23T08:02:01;3.55;;;1.73;;
32319;SDS011;19080;51.750;5.888;2022-07-23T08:04:28;2.60;;;1.77;;
32319;SDS011;19080;51.750;5.888;2022-07-23T08:06:55;3.38;;;2.17;;
32319;SDS011;19080;51.750;5.888;2022-07-23T08:09:21;3.38;;;1.77;;
32319;SDS011;19080;51.750;5.888;2022-07-23T08:11:47;4.28;;;2.00;;
32319;SDS011;19080;51.750;5.888;2022-07-23T08:14:14;3.15;;;2.00;;
32319;SDS011;19080;51.750;5.888;2022-07-23T08:16:40;4.80;;;2.10;;
32319;SDS011;19080;51.750;5.888;2022-07-23T08:19:27;2.72;;;1.73;;
32319;SDS011;19080;51.750;5.888;2022-07-23T08:21:53;4.60;;;2.28;;
32319;SDS011;19080;51.750;5.888;2022-07-23T08:24:20;4.93;;;2.25;;
32319;SDS011;19080;51.750;5.888;2022-07-23T08:26:46;3.65;;;2.03;;
32319;SDS011;19080;51.750;5.888;2022-07-23T08:29:13;4.15;;;2.08;;
32319;SDS011;19080;51.750;5.888;2022-07-23T08:31:40;2.72;;;2.10;;
32319;SDS011;19080;51.750;5.888;2022-07-23T08:34:07;4.57;;;1.98;;
32319;SDS011;19080;51.750;5.888;2022-07-23T08:36:33;4.50;;;1.67;;
32319;SDS011;19080;51.750;5.888;2022-07-23T08:38:59;4.43;;;1.88;;
32319;SDS011;19080;51.750;5.888;2022-07-23T08:41:28;3.25;;;1.85;;
32319;SDS011;19080;51.750;5.888;2022-07-23T08:43:55;3.45;;;1.75;;
32319;SDS011;19080;51.750;5.888;2022-07-23T08:46:22;2.50;;;1.40;;
32319;SDS011;19080;51.750;5.888;2022-07-23T08:48:50;4.45;;;1.48;;
32319;SDS011;19080;51.750;5.888;2022-07-23T08:51:16;3.95;;;1.60;;
32319;SDS011;19080;51.750;5.888;2022-07-23T08:53:43;1.80;;;1.27;;
32319;SDS011;19080;51.750;5.888;2022-07-23T08:56:10;4.43;;;1.52;;
32319;SDS011;19080;51.750;5.888;2022-07-23T08:58:37;3.40;;;1.40;;
32319;SDS011;19080;51.750;5.888;2022-07-23T09:01:03;5.22;;;2.15;;
32319;SDS011;19080;51.750;5.888;2022-07-23T09:03:31;3.05;;;1.40;;
32319;SDS011;19080;51.750;5.888;2022-07-23T09:05:58;4.28;;;1.73;;
32319;SDS011;19080;51.750;5.888;2022-07-23T09:08:27;4.47;;;1.70;;
32319;SDS011;19080;51.750;5.888;2022-07-23T09:11:00;4.43;;;1.80;;
32319;SDS011;19080;51.750;5.888;2022-07-23T09:15:55;2.70;;;2.00;;
32319;SDS011;19080;51.750;5.888;2022-07-23T09:18:31;3.58;;;1.85;;
32319;SDS011;19080;51.750;5.888;2022-07-23T09:21:20;3.15;;;1.35;;
32319;SDS011;19080;51.750;5.888;2022-07-23T09:23:49;4.57;;;1.63;;
32319;SDS011;19080;51.750;5.888;2022-07-23T09:26:17;6.03;;;1.90;;
32319;SDS011;19080;51.750;5.888;2022-07-23T09:29:00;2.08;;;1.38;;
32319;SDS011;19080;51.750;5.888;2022-07-23T09:31:31;1.70;;;1.17;;
32319;SDS011;19080;51.750;5.888;2022-07-23T09:34:06;3.88;;;1.50;;
32319;SDS011;19080;51.750;5.888;2022-07-23T09:36:32;3.00;;;1.55;;
32319;SDS011;19080;51.750;5.888;2022-07-23T09:38:59;3.67;;;1.25;;
32319;SDS011;19080;51.750;5.888;2022-07-23T09:41:25;3.03;;;1.50;;
32319;SDS011;19080;51.750;5.888;2022-07-23T09:44:01;4.88;;;1.95;;
32319;SDS011;19080;51.750;5.888;2022-07-23T09:46:32;3.67;;;1.90;;
32319;SDS011;19080;51.750;5.888;2022-07-23T09:48:59;3.25;;;1.73;;
32319;SDS011;19080;51.750;5.888;2022-07-23T09:51:43;4.38;;;2.33;;
32319;SDS011;19080;51.750;5.888;2022-07-23T09:54:19;4.32;;;2.05;;
32319;SDS011;19080;51.750;5.888;2022-07-23T09:56:46;4.00;;;1.80;;
32319;SDS011;19080;51.750;5.888;2022-07-23T09:59:14;4.22;;;2.03;;
32319;SDS011;19080;51.750;5.888;2022-07-23T10:01:44;2.22;;;1.55;;
32319;SDS011;19080;51.750;5.888;2022-07-23T10:04:11;4.88;;;1.67;;
32319;SDS011;19080;51.750;5.888;2022-07-23T10:07:10;1.92;;;1.67;;
32319;SDS011;19080;51.750;5.888;2022-07-23T10:09:55;3.72;;;1.92;;
32319;SDS011;19080;51.750;5.888;2022-07-23T10:12:46;6.60;;;2.25;;
32319;SDS011;19080;51.750;5.888;2022-07-23T10:15:31;3.50;;;1.67;;
32319;SDS011;19080;51.750;5.888;2022-07-23T10:17:58;5.38;;;1.55;;
32319;SDS011;19080;51.750;5.888;2022-07-23T10:20:24;3.45;;;1.90;;
32319;SDS011;19080;51.750;5.888;2022-07-23T10:22:56;3.95;;;1.67;;
32319;SDS011;19080;51.750;5.888;2022-07-23T10:25:32;5.20;;;1.70;;
32319;SDS011;19080;51.750;5.888;2022-07-23T10:35:47;2.40;;;1.63;;
32319;SDS011;19080;51.750;5.888;2022-07-23T10:38:30;3.53;;;1.97;;
32319;SDS011;19080;51.750;5.888;2022-07-23T10:40:58;2.95;;;2.08;;
32319;SDS011;19080;51.750;5.888;2022-07-23T10:43:25;4.10;;;2.28;;
32319;SDS011;19080;51.750;5.888;2022-07-23T10:45:51;2.58;;;1.83;;
32319;SDS011;19080;51.750;5.888;2022-07-23T10:48:19;3.97;;;2.00;;
32319;SDS011;19080;51.750;5.888;2022-07-23T10:51:09;3.20;;;2.05;;
32319;SDS011;19080;51.750;5.888;2022-07-23T10:59:04;2.95;;;2.22;;
32319;SDS011;19080;51.750;5.888;2022-07-23T11:01:31;3.15;;;2.10;;
32319;SDS011;19080;51.750;5.888;2022-07-23T11:03:57;3.38;;;2.60;;
32319;SDS011;19080;51.750;5.888;2022-07-23T11:17:23;2.90;;;2.40;;
32319;SDS011;19080;51.750;5.888;2022-07-23T11:20:36;4.60;;;2.70;;
32319;SDS011;19080;51.750;5.888;2022-07-23T11:25:10;5.05;;;2.17;;
32319;SDS011;19080;51.750;5.888;2022-07-23T11:27:40;4.43;;;2.38;;
32319;SDS011;19080;51.750;5.888;2022-07-23T11:30:08;3.85;;;2.08;;
32319;SDS011;19080;51.750;5.888;2022-07-23T11:32:36;2.88;;;2.00;;
32319;SDS011;19080;51.750;5.888;2022-07-23T11:35:21;3.92;;;2.10;;
32319;SDS011;19080;51.750;5.888;2022-07-23T11:37:48;4.03;;;2.00;;
32319;SDS011;19080;51.750;5.888;2022-07-23T11:40:15;2.78;;;1.92;;
32319;SDS011;19080;51.750;5.888;2022-07-23T11:43:01;2.08;;;1.55;;
32319;SDS011;19080;51.750;5.888;2022-07-23T11:45:30;3.35;;;1.77;;
32319;SDS011;19080;51.750;5.888;2022-07-23T11:47:56;3.33;;;1.77;;
32319;SDS011;19080;51.750;5.888;2022-07-23T11:50:23;2.22;;;1.75;;
32319;SDS011;19080;51.750;5.888;2022-07-23T11:52:51;3.30;;;1.45;;
32319;SDS011;19080;51.750;5.888;2022-07-23T11:55:18;4.40;;;2.10;;
32319;SDS011;19080;51.750;5.888;2022-07-23T11:57:45;2.45;;;1.80;;
32319;SDS011;19080;51.750;5.888;2022-07-23T12:02:39;2.45;;;1.50;;
32319;SDS011;19080;51.750;5.888;2022-07-23T12:05:06;2.65;;;1.70;;
32319;SDS011;19080;51.750;5.888;2022-07-23T12:07:37;2.67;;;1.70;;
32319;SDS011;19080;51.750;5.888;2022-07-23T12:10:09;3.20;;;1.60;;
32319;SDS011;19080;51.750;5.888;2022-07-23T12:12:46;3.13;;;1.88;;
32319;SDS011;19080;51.750;5.888;2022-07-23T12:15:16;5.28;;;2.25;;
32319;SDS011;19080;51.750;5.888;2022-07-23T12:17:43;2.80;;;2.13;;
32319;SDS011;19080;51.750;5.888;2022-07-23T12:20:18;2.67;;;2.25;;
32319;SDS011;19080;51.750;5.888;2022-07-23T12:22:47;1.75;;;1.65;;
32319;SDS011;19080;51.750;5.888;2022-07-23T12:25:21;2.95;;;2.15;;
32319;SDS011;19080;51.750;5.888;2022-07-23T12:27:57;2.45;;;1.70;;
32319;SDS011;19080;51.750;5.888;2022-07-23T12:30:28;2.35;;;1.67;;
32319;SDS011;19080;51.750;5.888;2022-07-23T12:33:00;3.92;;;2.10;;
32319;SDS011;19080;51.750;5.888;2022-07-23T12:35:31;4.63;;;1.63;;
32319;SDS011;19080;51.750;5.888;2022-07-23T12:38:00;2.65;;;1.92;;
32319;SDS011;19080;51.750;5.888;2022-07-23T12:40:37;2.60;;;2.10;;
32319;SDS011;19080;51.750;5.888;2022-07-23T12:43:08;6.07;;;1.90;;
32319;SDS011;19080;51.750;5.888;2022-07-23T12:45:42;2.10;;;1.90;;
32319;SDS011;19080;51.750;5.888;2022-07-23T12:48:14;4.57;;;2.50;;
32319;SDS011;19080;51.750;5.888;2022-07-23T12:50:52;2.90;;;1.90;;
32319;SDS011;19080;51.750;5.888;2022-07-23T12:55:50;2.97;;;1.77;;
32319;SDS011;19080;51.750;5.888;2022-07-23T12:58:41;1.80;;;1.65;;
32319;SDS011;19080;51.750;5.888;2022-07-23T13:03:36;2.17;;;1.75;;
32319;SDS011;19080;51.750;5.888;2022-07-23T13:06:05;2.53;;;2.13;;
32319;SDS011;19080;51.750;5.888;2022-07-23T13:08:32;3.42;;;2.45;;
32319;SDS011;19080;51.750;5.888;2022-07-23T13:10:59;5.68;;;2.88;;
32319;SDS011;19080;51.750;5.888;2022-07-23T13:13:28;6.53;;;2.50;;
32319;SDS011;19080;51.750;5.888;2022-07-23T13:15:55;3.80;;;2.58;;
32319;SDS011;19080;51.750;5.888;2022-07-23T13:18:23;2.35;;;2.15;;
32319;SDS011;19080;51.750;5.888;2022-07-23T13:20:50;3.35;;;2.40;;
32319;SDS011;19080;51.750;5.888;2022-07-23T13:23:17;5.45;;;3.13;;
32319;SDS011;19080;51.750;5.888;2022-07-23T13:25:45;3.35;;;2.08;;
32319;SDS011;19080;51.750;5.888;2022-07-23T13:28:12;2.70;;;1.98;;
32319;SDS011;19080;51.750;5.888;2022-07-23T13:30:39;4.10;;;2.15;;
32319;SDS011;19080;51.750;5.888;2022-07-23T13:33:06;3.10;;;2.50;;
32319;SDS011;19080;51.750;5.888;2022-07-23T13:35:34;3.40;;;2.80;;
32319;SDS011;19080;51.750;5.888;2022-07-23T13:38:01;6.47;;;2.63;;
32319;SDS011;19080;51.750;5.888;2022-07-23T13:40:32;5.13;;;2.20;;
32319;SDS011;19080;51.750;5.888;2022-07-23T13:42:59;4.72;;;2.28;;
32319;SDS011;19080;51.750;5.888;2022-07-23T13:45:25;2.35;;;1.83;;
32319;SDS011;19080;51.750;5.888;2022-07-23T13:47:55;4.05;;;1.83;;
32319;SDS011;19080;51.750;5.888;2022-07-23T13:50:22;3.38;;;2.22;;
32319;SDS011;19080;51.750;5.888;2022-07-23T13:52:49;4.25;;;2.30;;
32319;SDS011;19080;51.750;5.888;2022-07-23T13:55:16;3.28;;;2.30;;
32319;SDS011;19080;51.750;5.888;2022-07-23T13:57:43;3.10;;;1.80;;
32319;SDS011;19080;51.750;5.888;2022-07-23T14:00:10;3.28;;;2.30;;
32319;SDS011;19080;51.750;5.888;2022-07-23T14:02:58;3.10;;;2.63;;
32319;SDS011;19080;51.750;5.888;2022-07-23T14:05:25;3.35;;;2.40;;
32319;SDS011;19080;51.750;5.888;2022-07-23T14:07:51;4.38;;;2.25;;
32319;SDS011;19080;51.750;5.888;2022-07-23T14:10:18;2.85;;;1.83;;
32319;SDS011;19080;51.750;5.888;2022-07-23T14:12:49;4.70;;;2.10;;
32319;SDS011;19080;51.750;5.888;2022-07-23T14:15:15;4.80;;;1.92;;
32319;SDS011;19080;51.750;5.888;2022-07-23T14:17:44;4.22;;;2.03;;
32319;SDS011;19080;51.750;5.888;2022-07-23T14:20:12;2.55;;;1.70;;
32319;SDS011;19080;51.750;5.888;2022-07-23T14:22:39;3.92;;;1.90;;
32319;SDS011;19080;51.750;5.888;2022-07-23T14:25:06;2.70;;;1.80;;
32319;SDS011;19080;51.750;5.888;2022-07-23T14:27:34;7.60;;;1.83;;
32319;SDS011;19080;51.750;5.888;2022-07-23T14:30:01;3.58;;;2.10;;
32319;SDS011;19080;51.750;5.888;2022-07-23T14:32:27;3.20;;;1.98;;
32319;SDS011;19080;51.750;5.888;2022-07-23T14:34:54;4.32;;;2.30;;
32319;SDS011;19080;51.750;5.888;2022-07-23T14:37:24;3.85;;;2.00;;
32319;SDS011;19080;51.750;5.888;2022-07-23T14:39:51;4.72;;;2.50;;
32319;SDS011;19080;51.750;5.888;2022-07-23T14:42:18;2.95;;;1.90;;
32319;SDS011;19080;51.750;5.888;2022-07-23T14:44:45;3.63;;;2.28;;
32319;SDS011;19080;51.750;5.888;2022-07-23T14:47:12;4.70;;;2.45;;
32319;SDS011;19080;51.750;5.888;2022-07-23T14:49:46;4.82;;;2.03;;
32319;SDS011;19080;51.750;5.888;2022-07-23T14:52:13;3.38;;;2.22;;
32319;SDS011;19080;51.750;5.888;2022-07-23T14:54:41;2.63;;;2.10;;
32319;SDS011;19080;51.750;5.888;2022-07-23T14:57:08;3.03;;;1.73;;
32319;SDS011;19080;51.750;5.888;2022-07-23T14:59:36;4.78;;;2.42;;
32319;SDS011;19080;51.750;5.888;2022-07-23T15:02:02;2.47;;;1.85;;
32319;SDS011;19080;51.750;5.888;2022-07-23T15:04:29;4.63;;;2.47;;
32319;SDS011;19080;51.750;5.888;2022-07-23T15:07:04;5.90;;;2.30;;
32319;SDS011;19080;51.750;5.888;2022-07-23T15:09:31;3.92;;;2.42;;
32319;SDS011;19080;51.750;5.888;2022-07-23T15:11:57;4.07;;;1.95;;
32319;SDS011;19080;51.750;5.888;2022-07-23T15:14:24;2.20;;;1.98;;
32319;SDS011;19080;51.750;5.888;2022-07-23T15:16:56;3.33;;;2.17;;
32319;SDS011;19080;51.750;5.888;2022-07-23T15:19:23;4.93;;;2.33;;
32319;SDS011;19080;51.750;5.888;2022-07-23T15:21:50;3.10;;;1.88;;
32319;SDS011;19080;51.750;5.888;2022-07-23T15:24:17;2.60;;;2.20;;
32319;SDS011;19080;51.750;5.888;2022-07-23T15:26:43;3.42;;;2.25;;
32319;SDS011;19080;51.750;5.888;2022-07-23T15:29:11;3.92;;;2.45;;
32319;SDS011;19080;51.750;5.888;2022-07-23T15:31:38;4.35;;;1.75;;
32319;SDS011;19080;51.750;5.888;2022-07-23T15:34:05;3.22;;;2.42;;